sensor_id;sensor_type;location;lat;lon;timestamp;temperature;humidity
5466;DHT22;2755;50.728;7.108;2024-02-26T00:00:31;6.80;1.00
5466;DHT22;2755;50.728;7.108;2024-02-26T00:02:57;6.80;1.00
5466;DHT22;2755;50.728;7.108;2024-02-26T00:05:23;6.70;1.00
5466;DHT22;2755;50.728;7.108;2024-02-26T00:07:49;6.90;1.00
5466;DHT22;2755;50.728;7.108;2024-02-26T00:10:14;6.70;1.00
5466;DHT22;2755;50.728;7.108;2024-02-26T00:12:40;6.70;1.00
5466;DHT22;2755;50.728;7.108;2024-02-26T00:15:09;6.70;1.00
5466;DHT22;2755;50.728;7.108;2024-02-26T00:17:35;6.70;1.00
5466;DHT22;2755;50.728;7.108;2024-02-26T00:20:02;6.90;1.00
5466;DHT22;2755;50.728;7.108;2024-02-26T00:24:55;6.70;1.00
5466;DHT22;2755;50.728;7.108;2024-02-26T00:27:21;6.90;1.00
5466;DHT22;2755;50.728;7.108;2024-02-26T00:29:46;7.40;1.00
5466;DHT22;2755;50.728;7.108;2024-02-26T00:34:38;7.20;1.00
5466;DHT22;2755;50.728;7.108;2024-02-26T00:37:04;7.80;1.00
5466;DHT22;2755;50.728;7.108;2024-02-26T00:39:29;7.30;1.00
5466;DHT22;2755;50.728;7.108;2024-02-26T00:41:55;7.20;1.00
5466;DHT22;2755;50.728;7.108;2024-02-26T00:44:20;6.80;1.00
5466;DHT22;2755;50.728;7.108;2024-02-26T00:46:46;6.90;1.00
5466;DHT22;2755;50.728;7.108;2024-02-26T00:49:11;6.60;1.00
5466;DHT22;2755;50.728;7.108;2024-02-26T00:51:37;6.80;1.00
5466;DHT22;2755;50.728;7.108;2024-02-26T00:56:28;6.50;1.00
5466;DHT22;2755;50.728;7.108;2024-02-26T01:01:20;5.50;1.00
5466;DHT22;2755;50.728;7.108;2024-02-26T01:03:46;6.70;1.00
5466;DHT22;2755;50.728;7.108;2024-02-26T01:06:11;6.30;1.00
5466;DHT22;2755;50.728;7.108;2024-02-26T01:08:37;5.90;1.00
5466;DHT22;2755;50.728;7.108;2024-02-26T01:11:03;6.40;1.00
5466;DHT22;2755;50.728;7.108;2024-02-26T01:13:29;6.40;1.00
5466;DHT22;2755;50.728;7.108;2024-02-26T01:15:55;6.20;1.00
5466;DHT22;2755;50.728;7.108;2024-02-26T01:18:20;6.40;1.00
5466;DHT22;2755;50.728;7.108;2024-02-26T01:20:46;6.00;1.00
5466;DHT22;2755;50.728;7.108;2024-02-26T01:23:12;6.10;1.00
5466;DHT22;2755;50.728;7.108;2024-02-26T01:25:38;6.40;1.00
5466;DHT22;2755;50.728;7.108;2024-02-26T01:28:04;6.30;1.00
5466;DHT22;2755;50.728;7.108;2024-02-26T01:30:31;6.30;1.00
5466;DHT22;2755;50.728;7.108;2024-02-26T01:32:56;6.60;1.00
5466;DHT22;2755;50.728;7.108;2024-02-26T01:35:22;5.90;1.00
5466;DHT22;2755;50.728;7.108;2024-02-26T01:37:48;6.50;1.00
5466;DHT22;2755;50.728;7.108;2024-02-26T01:40:13;5.90;1.00
5466;DHT22;2755;50.728;7.108;2024-02-26T01:42:43;6.30;1.00
5466;DHT22;2755;50.728;7.108;2024-02-26T01:45:18;6.00;1.00
5466;DHT22;2755;50.728;7.108;2024-02-26T01:47:51;6.00;1.00
5466;DHT22;2755;50.728;7.108;2024-02-26T01:50:20;6.40;1.00
5466;DHT22;2755;50.728;7.108;2024-02-26T01:52:49;6.70;1.00
5466;DHT22;2755;50.728;7.108;2024-02-26T01:55:15;6.40;1.00
5466;DHT22;2755;50.728;7.108;2024-02-26T01:57:43;6.40;1.00
5466;DHT22;2755;50.728;7.108;2024-02-26T02:00:09;6.00;1.00
5466;DHT22;2755;50.728;7.108;2024-02-26T02:02:35;6.30;1.00
5466;DHT22;2755;50.728;7.108;2024-02-26T02:05:01;6.00;1.00
5466;DHT22;2755;50.728;7.108;2024-02-26T02:07:28;6.50;1.00
5466;DHT22;2755;50.728;7.108;2024-02-26T02:09:54;6.10;1.00
5466;DHT22;2755;50.728;7.108;2024-02-26T02:12:21;6.20;1.00
5466;DHT22;2755;50.728;7.108;2024-02-26T02:17:13;6.20;1.00
5466;DHT22;2755;50.728;7.108;2024-02-26T02:19:39;6.00;1.00
5466;DHT22;2755;50.728;7.108;2024-02-26T02:22:04;6.10;1.00
5466;DHT22;2755;50.728;7.108;2024-02-26T02:29:22;6.20;1.00
5466;DHT22;2755;50.728;7.108;2024-02-26T02:31:48;5.70;1.00
5466;DHT22;2755;50.728;7.108;2024-02-26T02:34:13;6.10;1.00
5466;DHT22;2755;50.728;7.108;2024-02-26T02:36:52;6.80;1.00
5466;DHT22;2755;50.728;7.108;2024-02-26T02:39:18;5.70;1.00
5466;DHT22;2755;50.728;7.108;2024-02-26T02:44:10;6.60;1.00
5466;DHT22;2755;50.728;7.108;2024-02-26T02:46:35;5.90;1.00
5466;DHT22;2755;50.728;7.108;2024-02-26T02:49:01;5.60;1.00
5466;DHT22;2755;50.728;7.108;2024-02-26T02:51:27;6.10;1.00
5466;DHT22;2755;50.728;7.108;2024-02-26T02:53:52;5.50;1.00
5466;DHT22;2755;50.728;7.108;2024-02-26T02:56:18;5.80;1.00
5466;DHT22;2755;50.728;7.108;2024-02-26T02:58:44;6.20;1.00
5466;DHT22;2755;50.728;7.108;2024-02-26T03:01:10;5.00;1.00
5466;DHT22;2755;50.728;7.108;2024-02-26T03:03:35;6.00;1.00
5466;DHT22;2755;50.728;7.108;2024-02-26T03:06:03;5.90;1.00
5466;DHT22;2755;50.728;7.108;2024-02-26T03:10:54;6.10;1.00
5466;DHT22;2755;50.728;7.108;2024-02-26T03:13:20;5.70;1.00
5466;DHT22;2755;50.728;7.108;2024-02-26T03:15:46;5.90;1.00
5466;DHT22;2755;50.728;7.108;2024-02-26T03:20:38;5.30;1.00
5466;DHT22;2755;50.728;7.108;2024-02-26T03:23:04;5.60;1.00
5466;DHT22;2755;50.728;7.108;2024-02-26T03:25:29;6.20;1.00
5466;DHT22;2755;50.728;7.108;2024-02-26T03:27:55;5.50;1.00
5466;DHT22;2755;50.728;7.108;2024-02-26T03:30:20;5.70;1.00
5466;DHT22;2755;50.728;7.108;2024-02-26T03:32:46;5.30;1.00
5466;DHT22;2755;50.728;7.108;2024-02-26T03:35:13;5.70;3.60
5466;DHT22;2755;50.728;7.108;2024-02-26T03:37:38;5.70;3.60
5466;DHT22;2755;50.728;7.108;2024-02-26T03:40:04;5.70;2.80
5466;DHT22;2755;50.728;7.108;2024-02-26T03:42:30;5.50;11.50
5466;DHT22;2755;50.728;7.108;2024-02-26T03:44:55;5.70;13.90
5466;DHT22;2755;50.728;7.108;2024-02-26T03:47:21;5.60;18.60
5466;DHT22;2755;50.728;7.108;2024-02-26T03:52:13;5.80;19.40
5466;DHT22;2755;50.728;7.108;2024-02-26T03:54:38;5.50;18.90
5466;DHT22;2755;50.728;7.108;2024-02-26T03:57:04;5.50;23.00
5466;DHT22;2755;50.728;7.108;2024-02-26T03:59:30;6.00;29.70
5466;DHT22;2755;50.728;7.108;2024-02-26T04:01:55;5.80;40.70
5466;DHT22;2755;50.728;7.108;2024-02-26T04:04:21;5.30;40.60
5466;DHT22;2755;50.728;7.108;2024-02-26T04:06:46;5.80;40.00
5466;DHT22;2755;50.728;7.108;2024-02-26T04:09:15;5.30;37.00
5466;DHT22;2755;50.728;7.108;2024-02-26T04:11:41;5.20;38.20
5466;DHT22;2755;50.728;7.108;2024-02-26T04:14:08;5.90;45.90
5466;DHT22;2755;50.728;7.108;2024-02-26T04:16:34;5.80;47.90
5466;DHT22;2755;50.728;7.108;2024-02-26T04:19:03;5.70;51.00
5466;DHT22;2755;50.728;7.108;2024-02-26T04:21:28;5.70;49.30
5466;DHT22;2755;50.728;7.108;2024-02-26T04:23:54;6.10;48.20
5466;DHT22;2755;50.728;7.108;2024-02-26T04:26:26;5.70;52.30
5466;DHT22;2755;50.728;7.108;2024-02-26T04:28:51;4.90;49.30
5466;DHT22;2755;50.728;7.108;2024-02-26T04:31:18;5.70;52.60
5466;DHT22;2755;50.728;7.108;2024-02-26T04:33:44;5.80;53.10
5466;DHT22;2755;50.728;7.108;2024-02-26T04:36:16;5.20;53.50
5466;DHT22;2755;50.728;7.108;2024-02-26T04:38:45;5.70;55.00
5466;DHT22;2755;50.728;7.108;2024-02-26T04:41:11;6.50;55.90
5466;DHT22;2755;50.728;7.108;2024-02-26T04:43:37;5.30;54.70
5466;DHT22;2755;50.728;7.108;2024-02-26T04:46:09;6.60;60.20
5466;DHT22;2755;50.728;7.108;2024-02-26T04:48:35;5.90;55.80
5466;DHT22;2755;50.728;7.108;2024-02-26T04:51:01;5.70;55.10
5466;DHT22;2755;50.728;7.108;2024-02-26T04:53:27;5.60;59.60
5466;DHT22;2755;50.728;7.108;2024-02-26T04:58:19;5.70;59.40
5466;DHT22;2755;50.728;7.108;2024-02-26T05:03:10;5.70;58.70
5466;DHT22;2755;50.728;7.108;2024-02-26T05:05:41;5.80;57.00
5466;DHT22;2755;50.728;7.108;2024-02-26T05:08:06;5.50;57.90
5466;DHT22;2755;50.728;7.108;2024-02-26T05:12:59;5.20;59.00
5466;DHT22;2755;50.728;7.108;2024-02-26T05:15:24;5.40;60.10
5466;DHT22;2755;50.728;7.108;2024-02-26T05:17:50;5.00;59.20
5466;DHT22;2755;50.728;7.108;2024-02-26T05:20:16;5.60;61.20
5466;DHT22;2755;50.728;7.108;2024-02-26T05:22:41;5.70;68.80
5466;DHT22;2755;50.728;7.108;2024-02-26T05:25:07;5.60;67.00
5466;DHT22;2755;50.728;7.108;2024-02-26T05:29:59;5.80;66.10
5466;DHT22;2755;50.728;7.108;2024-02-26T05:32:25;5.50;64.30
5466;DHT22;2755;50.728;7.108;2024-02-26T05:37:16;6.20;67.30
5466;DHT22;2755;50.728;7.108;2024-02-26T05:42:08;5.50;64.00
5466;DHT22;2755;50.728;7.108;2024-02-26T05:44:34;4.70;62.90
5466;DHT22;2755;50.728;7.108;2024-02-26T05:46:59;5.50;62.10
5466;DHT22;2755;50.728;7.108;2024-02-26T05:49:25;5.90;62.00
5466;DHT22;2755;50.728;7.108;2024-02-26T05:51:51;5.60;59.10
5466;DHT22;2755;50.728;7.108;2024-02-26T05:54:16;5.00;61.00
5466;DHT22;2755;50.728;7.108;2024-02-26T05:56:42;5.70;62.30
5466;DHT22;2755;50.728;7.108;2024-02-26T05:59:08;5.20;64.50
5466;DHT22;2755;50.728;7.108;2024-02-26T06:01:33;5.60;61.90
5466;DHT22;2755;50.728;7.108;2024-02-26T06:03:59;5.10;64.50
5466;DHT22;2755;50.728;7.108;2024-02-26T06:06:25;5.40;66.20
5466;DHT22;2755;50.728;7.108;2024-02-26T06:11:17;5.30;66.50
5466;DHT22;2755;50.728;7.108;2024-02-26T06:16:09;6.20;71.00
5466;DHT22;2755;50.728;7.108;2024-02-26T06:18:34;5.60;67.50
5466;DHT22;2755;50.728;7.108;2024-02-26T06:23:26;5.40;67.50
5466;DHT22;2755;50.728;7.108;2024-02-26T06:25:52;5.80;74.10
5466;DHT22;2755;50.728;7.108;2024-02-26T06:28:18;5.60;71.10
5466;DHT22;2755;50.728;7.108;2024-02-26T06:30:43;5.50;71.30
5466;DHT22;2755;50.728;7.108;2024-02-26T06:33:09;5.50;71.10
5466;DHT22;2755;50.728;7.108;2024-02-26T06:35:36;5.30;75.50
5466;DHT22;2755;50.728;7.108;2024-02-26T06:40:28;5.80;72.40
5466;DHT22;2755;50.728;7.108;2024-02-26T06:42:53;4.20;76.70
5466;DHT22;2755;50.728;7.108;2024-02-26T06:45:19;5.30;77.80
5466;DHT22;2755;50.728;7.108;2024-02-26T06:47:48;5.50;77.10
5466;DHT22;2755;50.728;7.108;2024-02-26T06:52:40;5.30;75.70
5466;DHT22;2755;50.728;7.108;2024-02-26T06:55:06;5.40;75.70
5466;DHT22;2755;50.728;7.108;2024-02-26T06:57:33;5.40;73.20
5466;DHT22;2755;50.728;7.108;2024-02-26T07:02:25;5.90;80.00
5466;DHT22;2755;50.728;7.108;2024-02-26T07:04:50;6.10;78.20
5466;DHT22;2755;50.728;7.108;2024-02-26T07:07:16;5.30;76.80
5466;DHT22;2755;50.728;7.108;2024-02-26T07:09:43;5.30;77.30
5466;DHT22;2755;50.728;7.108;2024-02-26T07:12:09;5.50;81.00
5466;DHT22;2755;50.728;7.108;2024-02-26T07:14:35;5.50;84.90
5466;DHT22;2755;50.728;7.108;2024-02-26T07:17:03;5.60;83.50
5466;DHT22;2755;50.728;7.108;2024-02-26T07:19:28;5.80;80.60
5466;DHT22;2755;50.728;7.108;2024-02-26T07:24:21;5.20;80.90
5466;DHT22;2755;50.728;7.108;2024-02-26T07:26:46;4.50;83.00
5466;DHT22;2755;50.728;7.108;2024-02-26T07:29:12;5.20;83.70
5466;DHT22;2755;50.728;7.108;2024-02-26T07:34:03;5.10;85.20
5466;DHT22;2755;50.728;7.108;2024-02-26T07:36:29;5.40;83.00
5466;DHT22;2755;50.728;7.108;2024-02-26T07:43:46;5.40;81.10
5466;DHT22;2755;50.728;7.108;2024-02-26T07:46:12;5.40;82.20
5466;DHT22;2755;50.728;7.108;2024-02-26T07:48:38;5.50;81.90
5466;DHT22;2755;50.728;7.108;2024-02-26T07:51:04;5.10;80.20
5466;DHT22;2755;50.728;7.108;2024-02-26T07:53:30;5.70;87.60
5466;DHT22;2755;50.728;7.108;2024-02-26T07:55:56;5.40;82.90
5466;DHT22;2755;50.728;7.108;2024-02-26T08:03:14;5.80;80.00
5466;DHT22;2755;50.728;7.108;2024-02-26T08:08:08;5.50;79.80
5466;DHT22;2755;50.728;7.108;2024-02-26T08:10:34;5.10;82.30
5466;DHT22;2755;50.728;7.108;2024-02-26T08:12:59;5.30;86.10
5466;DHT22;2755;50.728;7.108;2024-02-26T08:18:00;5.40;79.90
5466;DHT22;2755;50.728;7.108;2024-02-26T08:20:28;5.60;85.30
5466;DHT22;2755;50.728;7.108;2024-02-26T08:22:53;5.80;82.60
5466;DHT22;2755;50.728;7.108;2024-02-26T08:27:45;5.20;84.40
5466;DHT22;2755;50.728;7.108;2024-02-26T08:35:08;5.80;88.60
5466;DHT22;2755;50.728;7.108;2024-02-26T08:39:59;5.00;82.70
5466;DHT22;2755;50.728;7.108;2024-02-26T08:44:51;5.40;88.40
5466;DHT22;2755;50.728;7.108;2024-02-26T08:47:16;5.50;84.90
5466;DHT22;2755;50.728;7.108;2024-02-26T08:49:44;5.60;88.30
5466;DHT22;2755;50.728;7.108;2024-02-26T08:52:09;5.40;89.00
5466;DHT22;2755;50.728;7.108;2024-02-26T08:54:35;5.90;87.40
5466;DHT22;2755;50.728;7.108;2024-02-26T08:57:01;5.60;84.10
5466;DHT22;2755;50.728;7.108;2024-02-26T09:04:18;5.50;85.40
5466;DHT22;2755;50.728;7.108;2024-02-26T09:09:10;5.40;86.30
5466;DHT22;2755;50.728;7.108;2024-02-26T09:14:02;6.10;88.30
5466;DHT22;2755;50.728;7.108;2024-02-26T09:16:29;5.30;85.00
5466;DHT22;2755;50.728;7.108;2024-02-26T09:23:50;5.40;80.20
5466;DHT22;2755;50.728;7.108;2024-02-26T09:31:08;5.40;78.20
5466;DHT22;2755;50.728;7.108;2024-02-26T09:33:34;5.50;76.20
5466;DHT22;2755;50.728;7.108;2024-02-26T09:35:59;5.30;78.10
5466;DHT22;2755;50.728;7.108;2024-02-26T09:40:59;5.30;82.30
5466;DHT22;2755;50.728;7.108;2024-02-26T09:43:31;5.60;81.70
5466;DHT22;2755;50.728;7.108;2024-02-26T09:45:59;5.90;83.60
5466;DHT22;2755;50.728;7.108;2024-02-26T09:50:51;6.20;77.80
5466;DHT22;2755;50.728;7.108;2024-02-26T09:53:18;5.50;79.30
5466;DHT22;2755;50.728;7.108;2024-02-26T10:03:13;5.80;68.10
5466;DHT22;2755;50.728;7.108;2024-02-26T10:05:41;6.00;69.70
5466;DHT22;2755;50.728;7.108;2024-02-26T10:08:09;5.50;69.40
5466;DHT22;2755;50.728;7.108;2024-02-26T10:13:03;6.20;76.80
5466;DHT22;2755;50.728;7.108;2024-02-26T10:15:36;6.10;73.30
5466;DHT22;2755;50.728;7.108;2024-02-26T10:18:05;6.20;67.80
5466;DHT22;2755;50.728;7.108;2024-02-26T10:20:31;6.20;70.50
5466;DHT22;2755;50.728;7.108;2024-02-26T10:22:58;6.50;63.80
5466;DHT22;2755;50.728;7.108;2024-02-26T10:27:49;6.60;52.20
5466;DHT22;2755;50.728;7.108;2024-02-26T10:30:17;6.40;53.00
5466;DHT22;2755;50.728;7.108;2024-02-26T10:32:45;7.20;43.20
5466;DHT22;2755;50.728;7.108;2024-02-26T10:35:11;6.30;45.80
5466;DHT22;2755;50.728;7.108;2024-02-26T10:37:36;6.30;49.00
5466;DHT22;2755;50.728;7.108;2024-02-26T10:42:30;5.70;40.30
5466;DHT22;2755;50.728;7.108;2024-02-26T10:44:55;6.80;42.20
5466;DHT22;2755;50.728;7.108;2024-02-26T10:47:24;6.50;46.60
5466;DHT22;2755;50.728;7.108;2024-02-26T10:49:50;6.40;39.10
5466;DHT22;2755;50.728;7.108;2024-02-26T10:52:19;6.30;41.20
5466;DHT22;2755;50.728;7.108;2024-02-26T10:54:47;6.20;48.20
5466;DHT22;2755;50.728;7.108;2024-02-26T10:59:39;6.80;42.90
5466;DHT22;2755;50.728;7.108;2024-02-26T11:02:08;6.50;41.60
5466;DHT22;2755;50.728;7.108;2024-02-26T11:04:36;7.20;47.50
5466;DHT22;2755;50.728;7.108;2024-02-26T11:07:02;6.80;45.60
5466;DHT22;2755;50.728;7.108;2024-02-26T11:09:30;6.20;43.70
5466;DHT22;2755;50.728;7.108;2024-02-26T11:11:57;6.40;47.10
5466;DHT22;2755;50.728;7.108;2024-02-26T11:14:24;6.50;38.90
5466;DHT22;2755;50.728;7.108;2024-02-26T11:19:18;6.50;34.30
5466;DHT22;2755;50.728;7.108;2024-02-26T11:21:43;6.30;36.40
5466;DHT22;2755;50.728;7.108;2024-02-26T11:24:14;6.50;36.60
5466;DHT22;2755;50.728;7.108;2024-02-26T11:26:48;6.00;39.70
5466;DHT22;2755;50.728;7.108;2024-02-26T11:29:19;7.00;42.70
5466;DHT22;2755;50.728;7.108;2024-02-26T11:31:47;6.90;40.50
5466;DHT22;2755;50.728;7.108;2024-02-26T11:34:13;6.50;43.10
5466;DHT22;2755;50.728;7.108;2024-02-26T11:39:05;6.60;38.60
5466;DHT22;2755;50.728;7.108;2024-02-26T11:41:31;6.70;47.30
5466;DHT22;2755;50.728;7.108;2024-02-26T11:44:03;6.70;40.70
5466;DHT22;2755;50.728;7.108;2024-02-26T11:46:34;6.70;39.50
5466;DHT22;2755;50.728;7.108;2024-02-26T11:51:54;6.70;41.20
5466;DHT22;2755;50.728;7.108;2024-02-26T11:54:49;6.70;38.90
5466;DHT22;2755;50.728;7.108;2024-02-26T12:00:15;6.80;37.90
5466;DHT22;2755;50.728;7.108;2024-02-26T12:02:50;7.00;44.00
5466;DHT22;2755;50.728;7.108;2024-02-26T12:05:23;6.70;46.60
5466;DHT22;2755;50.728;7.108;2024-02-26T12:07:49;6.90;44.20
5466;DHT22;2755;50.728;7.108;2024-02-26T12:15:15;6.80;38.00
5466;DHT22;2755;50.728;7.108;2024-02-26T12:20:13;7.00;39.40
5466;DHT22;2755;50.728;7.108;2024-02-26T12:22:45;6.80;41.40
5466;DHT22;2755;50.728;7.108;2024-02-26T12:27:36;7.40;39.80
5466;DHT22;2755;50.728;7.108;2024-02-26T12:30:03;6.90;33.90
5466;DHT22;2755;50.728;7.108;2024-02-26T12:32:29;7.30;37.70
5466;DHT22;2755;50.728;7.108;2024-02-26T12:37:20;7.10;39.70
5466;DHT22;2755;50.728;7.108;2024-02-26T12:39:46;6.90;36.70
5466;DHT22;2755;50.728;7.108;2024-02-26T12:42:12;7.10;34.00
5466;DHT22;2755;50.728;7.108;2024-02-26T12:44:37;7.30;37.50
5466;DHT22;2755;50.728;7.108;2024-02-26T12:47:04;7.60;38.90
5466;DHT22;2755;50.728;7.108;2024-02-26T12:49:30;7.00;35.00
5466;DHT22;2755;50.728;7.108;2024-02-26T12:54:30;6.90;34.30
5466;DHT22;2755;50.728;7.108;2024-02-26T13:01:49;7.00;31.50
5466;DHT22;2755;50.728;7.108;2024-02-26T13:04:16;7.00;33.10
5466;DHT22;2755;50.728;7.108;2024-02-26T13:06:43;6.80;34.60
5466;DHT22;2755;50.728;7.108;2024-02-26T13:09:12;7.40;31.40
5466;DHT22;2755;50.728;7.108;2024-02-26T13:11:40;7.20;32.10
5466;DHT22;2755;50.728;7.108;2024-02-26T13:14:05;6.90;30.00
5466;DHT22;2755;50.728;7.108;2024-02-26T13:16:32;7.00;30.50
5466;DHT22;2755;50.728;7.108;2024-02-26T13:19:09;7.20;29.60
5466;DHT22;2755;50.728;7.108;2024-02-26T13:26:27;7.00;35.70
5466;DHT22;2755;50.728;7.108;2024-02-26T13:29:02;7.10;33.40
5466;DHT22;2755;50.728;7.108;2024-02-26T13:31:32;6.80;40.40
5466;DHT22;2755;50.728;7.108;2024-02-26T13:34:03;7.20;40.10
5466;DHT22;2755;50.728;7.108;2024-02-26T13:36:29;6.90;43.50
5466;DHT22;2755;50.728;7.108;2024-02-26T13:38:55;6.90;44.10
5466;DHT22;2755;50.728;7.108;2024-02-26T13:41:22;6.90;49.90
5466;DHT22;2755;50.728;7.108;2024-02-26T13:43:48;6.90;49.40
5466;DHT22;2755;50.728;7.108;2024-02-26T13:46:14;6.90;52.40
5466;DHT22;2755;50.728;7.108;2024-02-26T13:48:41;6.50;51.10
5466;DHT22;2755;50.728;7.108;2024-02-26T13:51:07;7.40;55.10
5466;DHT22;2755;50.728;7.108;2024-02-26T13:53:33;7.00;57.80
5466;DHT22;2755;50.728;7.108;2024-02-26T13:55:58;7.20;60.80
5466;DHT22;2755;50.728;7.108;2024-02-26T13:58:27;6.80;57.20
5466;DHT22;2755;50.728;7.108;2024-02-26T14:00:53;6.90;57.10
5466;DHT22;2755;50.728;7.108;2024-02-26T14:03:20;6.70;60.90
5466;DHT22;2755;50.728;7.108;2024-02-26T14:05:45;6.90;59.50
5466;DHT22;2755;50.728;7.108;2024-02-26T14:08:11;7.20;64.20
5466;DHT22;2755;50.728;7.108;2024-02-26T14:15:29;6.80;67.50
5466;DHT22;2755;50.728;7.108;2024-02-26T14:17:55;6.90;68.90
5466;DHT22;2755;50.728;7.108;2024-02-26T14:20:24;7.60;71.30
5466;DHT22;2755;50.728;7.108;2024-02-26T14:22:51;7.00;70.00
5466;DHT22;2755;50.728;7.108;2024-02-26T14:25:18;7.10;69.40
5466;DHT22;2755;50.728;7.108;2024-02-26T14:27:45;7.60;72.10
5466;DHT22;2755;50.728;7.108;2024-02-26T14:30:12;6.90;72.60
5466;DHT22;2755;50.728;7.108;2024-02-26T14:35:06;6.80;68.40
5466;DHT22;2755;50.728;7.108;2024-02-26T14:39:58;6.40;70.70
5466;DHT22;2755;50.728;7.108;2024-02-26T14:47:16;6.90;65.80
5466;DHT22;2755;50.728;7.108;2024-02-26T14:52:08;7.20;70.60
5466;DHT22;2755;50.728;7.108;2024-02-26T14:54:33;7.50;72.40
5466;DHT22;2755;50.728;7.108;2024-02-26T14:57:03;7.40;76.70
5466;DHT22;2755;50.728;7.108;2024-02-26T14:59:30;6.90;73.30
5466;DHT22;2755;50.728;7.108;2024-02-26T15:01:57;7.10;70.40
5466;DHT22;2755;50.728;7.108;2024-02-26T15:06:48;7.60;62.90
5466;DHT22;2755;50.728;7.108;2024-02-26T15:11:40;7.00;67.60
5466;DHT22;2755;50.728;7.108;2024-02-26T15:14:07;7.10;60.80
5466;DHT22;2755;50.728;7.108;2024-02-26T15:16:32;7.20;66.70
5466;DHT22;2755;50.728;7.108;2024-02-26T15:18:58;7.20;62.90
5466;DHT22;2755;50.728;7.108;2024-02-26T15:23:49;7.00;67.90
5466;DHT22;2755;50.728;7.108;2024-02-26T15:28:41;7.20;67.70
5466;DHT22;2755;50.728;7.108;2024-02-26T15:31:07;7.40;64.20
5466;DHT22;2755;50.728;7.108;2024-02-26T15:33:33;8.10;63.00
5466;DHT22;2755;50.728;7.108;2024-02-26T15:38:25;6.60;58.50
5466;DHT22;2755;50.728;7.108;2024-02-26T15:50:36;7.20;49.80
5466;DHT22;2755;50.728;7.108;2024-02-26T16:00:21;7.60;54.90
5466;DHT22;2755;50.728;7.108;2024-02-26T16:02:47;7.20;50.00
5466;DHT22;2755;50.728;7.108;2024-02-26T16:05:14;8.00;56.40
5466;DHT22;2755;50.728;7.108;2024-02-26T16:07:44;7.30;52.30
5466;DHT22;2755;50.728;7.108;2024-02-26T16:10:11;7.50;50.80
5466;DHT22;2755;50.728;7.108;2024-02-26T16:12:41;7.60;54.40
5466;DHT22;2755;50.728;7.108;2024-02-26T16:17:37;7.50;51.40
5466;DHT22;2755;50.728;7.108;2024-02-26T16:20:06;8.10;52.40
5466;DHT22;2755;50.728;7.108;2024-02-26T16:22:34;8.20;54.60
5466;DHT22;2755;50.728;7.108;2024-02-26T16:25:02;7.50;54.20
5466;DHT22;2755;50.728;7.108;2024-02-26T16:27:29;7.40;51.90
5466;DHT22;2755;50.728;7.108;2024-02-26T16:29:54;7.50;55.00
5466;DHT22;2755;50.728;7.108;2024-02-26T16:34:47;7.50;52.30
5466;DHT22;2755;50.728;7.108;2024-02-26T16:37:14;7.30;50.40
5466;DHT22;2755;50.728;7.108;2024-02-26T16:42:07;7.70;54.90
5466;DHT22;2755;50.728;7.108;2024-02-26T16:44:36;6.80;50.40
5466;DHT22;2755;50.728;7.108;2024-02-26T16:47:03;7.80;50.30
5466;DHT22;2755;50.728;7.108;2024-02-26T16:51:55;7.40;51.10
5466;DHT22;2755;50.728;7.108;2024-02-26T16:54:22;7.20;52.30
5466;DHT22;2755;50.728;7.108;2024-02-26T16:56:47;7.60;50.30
5466;DHT22;2755;50.728;7.108;2024-02-26T16:59:13;7.60;50.60
5466;DHT22;2755;50.728;7.108;2024-02-26T17:04:06;7.20;49.40
5466;DHT22;2755;50.728;7.108;2024-02-26T17:08:57;7.60;49.80
5466;DHT22;2755;50.728;7.108;2024-02-26T17:11:23;7.50;50.90
5466;DHT22;2755;50.728;7.108;2024-02-26T17:13:49;7.40;50.30
5466;DHT22;2755;50.728;7.108;2024-02-26T17:16:15;8.00;51.40
5466;DHT22;2755;50.728;7.108;2024-02-26T17:21:07;7.30;53.70
5466;DHT22;2755;50.728;7.108;2024-02-26T17:23:34;7.30;54.10
5466;DHT22;2755;50.728;7.108;2024-02-26T17:25:59;8.40;50.80
5466;DHT22;2755;50.728;7.108;2024-02-26T17:28:25;7.30;50.90
5466;DHT22;2755;50.728;7.108;2024-02-26T17:30:51;6.90;53.50
5466;DHT22;2755;50.728;7.108;2024-02-26T17:33:17;7.40;52.10
5466;DHT22;2755;50.728;7.108;2024-02-26T17:35:42;7.50;54.30
5466;DHT22;2755;50.728;7.108;2024-02-26T17:38:09;7.40;51.10
5466;DHT22;2755;50.728;7.108;2024-02-26T17:40:35;7.20;51.80
5466;DHT22;2755;50.728;7.108;2024-02-26T17:43:01;7.40;52.40
5466;DHT22;2755;50.728;7.108;2024-02-26T17:45:27;7.20;53.20
5466;DHT22;2755;50.728;7.108;2024-02-26T17:47:52;7.60;52.40
5466;DHT22;2755;50.728;7.108;2024-02-26T17:50:18;8.00;54.90
5466;DHT22;2755;50.728;7.108;2024-02-26T17:52:44;7.30;52.00
5466;DHT22;2755;50.728;7.108;2024-02-26T17:57:36;7.60;53.40
5466;DHT22;2755;50.728;7.108;2024-02-26T18:07:20;7.60;56.10
5466;DHT22;2755;50.728;7.108;2024-02-26T18:09:46;7.10;56.20
5466;DHT22;2755;50.728;7.108;2024-02-26T18:12:12;7.30;57.30
5466;DHT22;2755;50.728;7.108;2024-02-26T18:14:37;6.90;57.00
5466;DHT22;2755;50.728;7.108;2024-02-26T18:17:03;7.30;58.70
5466;DHT22;2755;50.728;7.108;2024-02-26T18:19:28;7.30;59.40
5466;DHT22;2755;50.728;7.108;2024-02-26T18:21:54;7.40;60.00
5466;DHT22;2755;50.728;7.108;2024-02-26T18:24:20;7.10;60.50
5466;DHT22;2755;50.728;7.108;2024-02-26T18:26:46;7.40;61.30
5466;DHT22;2755;50.728;7.108;2024-02-26T18:29:14;7.70;61.60
5466;DHT22;2755;50.728;7.108;2024-02-26T18:34:06;7.10;61.30
5466;DHT22;2755;50.728;7.108;2024-02-26T18:36:32;7.30;60.70
5466;DHT22;2755;50.728;7.108;2024-02-26T18:38:57;7.60;61.90
5466;DHT22;2755;50.728;7.108;2024-02-26T18:41:23;7.40;57.30
5466;DHT22;2755;50.728;7.108;2024-02-26T18:43:53;7.70;60.80
5466;DHT22;2755;50.728;7.108;2024-02-26T18:46:18;7.60;60.20
5466;DHT22;2755;50.728;7.108;2024-02-26T18:48:44;7.40;56.70
5466;DHT22;2755;50.728;7.108;2024-02-26T18:51:11;6.80;56.50
5466;DHT22;2755;50.728;7.108;2024-02-26T18:53:38;7.00;54.30
5466;DHT22;2755;50.728;7.108;2024-02-26T18:56:06;7.50;53.80
5466;DHT22;2755;50.728;7.108;2024-02-26T18:58:32;7.70;52.50
5466;DHT22;2755;50.728;7.108;2024-02-26T19:00:57;7.00;52.50
5466;DHT22;2755;50.728;7.108;2024-02-26T19:03:23;7.40;53.00
5466;DHT22;2755;50.728;7.108;2024-02-26T19:05:49;7.60;51.20
5466;DHT22;2755;50.728;7.108;2024-02-26T19:13:08;7.80;53.80
5466;DHT22;2755;50.728;7.108;2024-02-26T19:15:33;7.40;52.50
5466;DHT22;2755;50.728;7.108;2024-02-26T19:20:29;7.30;53.70
5466;DHT22;2755;50.728;7.108;2024-02-26T19:25:23;7.60;48.10
5466;DHT22;2755;50.728;7.108;2024-02-26T19:27:49;7.70;49.90
5466;DHT22;2755;50.728;7.108;2024-02-26T19:30:15;7.40;44.20
5466;DHT22;2755;50.728;7.108;2024-02-26T19:32:41;7.30;47.90
5466;DHT22;2755;50.728;7.108;2024-02-26T19:37:35;7.40;40.90
5466;DHT22;2755;50.728;7.108;2024-02-26T19:40:01;7.80;39.20
5466;DHT22;2755;50.728;7.108;2024-02-26T19:44:53;7.80;36.60
5466;DHT22;2755;50.728;7.108;2024-02-26T19:47:19;7.20;37.10
5466;DHT22;2755;50.728;7.108;2024-02-26T19:49:45;7.50;35.30
5466;DHT22;2755;50.728;7.108;2024-02-26T19:52:10;7.50;34.60
5466;DHT22;2755;50.728;7.108;2024-02-26T19:54:40;7.50;30.00
5466;DHT22;2755;50.728;7.108;2024-02-26T19:57:06;7.70;35.20
5466;DHT22;2755;50.728;7.108;2024-02-26T20:04:27;5.60;28.60
5466;DHT22;2755;50.728;7.108;2024-02-26T20:06:53;7.50;29.80
5466;DHT22;2755;50.728;7.108;2024-02-26T20:09:19;7.00;28.90
5466;DHT22;2755;50.728;7.108;2024-02-26T20:14:12;7.50;27.00
5466;DHT22;2755;50.728;7.108;2024-02-26T20:16:39;7.50;23.60
5466;DHT22;2755;50.728;7.108;2024-02-26T20:24:08;7.50;24.50
5466;DHT22;2755;50.728;7.108;2024-02-26T20:26:37;7.10;21.40
5466;DHT22;2755;50.728;7.108;2024-02-26T20:31:29;7.30;19.80
5466;DHT22;2755;50.728;7.108;2024-02-26T20:36:24;7.40;17.20
5466;DHT22;2755;50.728;7.108;2024-02-26T20:41:18;7.50;20.10
5466;DHT22;2755;50.728;7.108;2024-02-26T20:48:36;7.30;20.50
5466;DHT22;2755;50.728;7.108;2024-02-26T20:53:29;7.60;19.90
5466;DHT22;2755;50.728;7.108;2024-02-26T20:55:54;7.20;19.50
5466;DHT22;2755;50.728;7.108;2024-02-26T20:58:20;6.70;17.40